createdAt,value
2018-07-03T00:00:54.302Z,0.60
2018-07-03T00:03:23.693Z,1.00
2018-07-03T00:05:51.504Z,0.60
2018-07-03T00:08:19.433Z,0.70
2018-07-03T00:10:47.300Z,0.70
2018-07-03T00:13:15.177Z,0.63
2018-07-03T00:15:43.218Z,0.63
2018-07-03T00:18:11.299Z,0.67
2018-07-03T00:20:39.167Z,0.70
2018-07-03T00:23:07.042Z,0.67
2018-07-03T00:25:34.898Z,0.60
2018-07-03T00:28:02.832Z,0.90
2018-07-03T00:30:30.649Z,0.90
2018-07-03T00:32:58.569Z,0.60
2018-07-03T00:35:26.467Z,0.77
2018-07-03T00:37:54.341Z,0.80
2018-07-03T00:40:22.217Z,0.70
2018-07-03T00:42:50.113Z,0.53
2018-07-03T00:45:17.977Z,0.90
2018-07-03T00:47:45.874Z,0.70
2018-07-03T00:50:13.784Z,0.73
2018-07-03T00:52:41.661Z,0.80
2018-07-03T00:55:09.459Z,0.60
2018-07-03T00:57:37.352Z,1.00
2018-07-03T01:00:22.732Z,0.70
2018-07-03T01:02:50.746Z,0.60
2018-07-03T01:05:18.669Z,0.60
2018-07-03T01:07:46.730Z,0.90
2018-07-03T01:10:14.602Z,0.70
2018-07-03T01:12:42.534Z,0.67
2018-07-03T01:15:10.401Z,0.60
2018-07-03T01:17:38.321Z,1.17
2018-07-03T01:20:06.277Z,0.50
2018-07-03T01:22:34.200Z,0.93
2018-07-03T01:25:02.132Z,1.00
2018-07-03T01:27:29.942Z,0.53
2018-07-03T01:29:57.901Z,0.57
2018-07-03T01:32:25.757Z,0.60
2018-07-03T01:34:53.633Z,0.50
2018-07-03T01:37:21.510Z,0.77
2018-07-03T01:39:49.384Z,0.70
2018-07-03T01:42:17.289Z,0.50
2018-07-03T01:44:45.085Z,0.80
2018-07-03T01:47:13.014Z,0.70
2018-07-03T01:49:40.917Z,0.80
2018-07-03T01:52:08.760Z,0.70
2018-07-03T01:54:36.711Z,0.70
2018-07-03T01:57:04.649Z,0.77
2018-07-03T01:59:32.568Z,0.97
2018-07-03T02:02:00.485Z,0.80
2018-07-03T02:04:28.453Z,0.70
2018-07-03T02:06:56.428Z,1.00
2018-07-03T02:09:24.376Z,0.97
2018-07-03T02:11:52.228Z,0.83
2018-07-03T02:14:20.124Z,0.70
2018-07-03T02:16:48.026Z,0.83
2018-07-03T02:19:15.897Z,0.97
2018-07-03T02:21:43.761Z,0.80
2018-07-03T02:24:11.765Z,0.80
2018-07-03T02:26:39.684Z,0.57
2018-07-03T02:29:07.549Z,0.80
2018-07-03T02:31:35.489Z,1.07
2018-07-03T02:34:03.423Z,0.57
2018-07-03T02:36:31.352Z,0.97
2018-07-03T02:38:59.212Z,1.02
2018-07-03T02:41:27.073Z,0.60
2018-07-03T02:43:54.928Z,0.80
2018-07-03T02:46:22.817Z,1.07
2018-07-03T02:48:50.621Z,0.77
2018-07-03T02:51:18.552Z,1.00
2018-07-03T02:53:46.447Z,0.67
2018-07-03T02:56:14.309Z,0.83
2018-07-03T02:58:42.168Z,0.87
2018-07-03T03:01:10.956Z,0.80
2018-07-03T03:03:38.841Z,1.00
2018-07-03T03:06:06.682Z,1.13
2018-07-03T03:08:34.561Z,1.07
2018-07-03T03:11:02.402Z,0.90
2018-07-03T03:13:30.286Z,1.00
2018-07-03T03:15:58.127Z,0.90
2018-07-03T03:18:25.933Z,1.23
2018-07-03T03:20:53.837Z,1.03
2018-07-03T03:23:21.853Z,1.00
2018-07-03T03:25:49.719Z,0.90
2018-07-03T03:28:17.548Z,0.90
2018-07-03T03:30:45.433Z,0.90
2018-07-03T03:33:13.273Z,0.73
2018-07-03T03:35:41.093Z,0.90
2018-07-03T03:38:08.956Z,1.20
2018-07-03T03:40:36.886Z,1.13
2018-07-03T03:43:04.763Z,1.00
2018-07-03T03:45:32.614Z,0.93
2018-07-03T03:48:00.524Z,0.87
2018-07-03T03:50:28.397Z,0.80
2018-07-03T03:52:56.340Z,1.00
2018-07-03T03:55:24.354Z,0.93
2018-07-03T03:57:52.231Z,1.00
2018-07-03T04:00:20.096Z,1.13
2018-07-03T04:02:47.983Z,1.10
2018-07-03T04:05:15.868Z,1.00
2018-07-03T04:07:43.775Z,0.87
2018-07-03T04:10:11.673Z,0.80
2018-07-03T04:12:39.544Z,1.00
2018-07-03T04:15:07.828Z,1.10
2018-07-03T04:17:35.905Z,1.20
2018-07-03T04:20:04.249Z,1.43
2018-07-03T04:22:32.181Z,1.20
2018-07-03T04:25:00.053Z,0.77
2018-07-03T04:27:28.000Z,0.80
2018-07-03T04:29:55.969Z,0.80
2018-07-03T04:32:23.877Z,1.13
2018-07-03T04:34:51.768Z,0.70
2018-07-03T04:37:19.674Z,0.97
2018-07-03T04:39:47.640Z,0.83
2018-07-03T04:42:15.497Z,1.20
2018-07-03T04:44:43.440Z,1.30
2018-07-03T04:47:11.329Z,1.00
2018-07-03T04:49:39.246Z,0.90
2018-07-03T04:52:07.205Z,1.10
2018-07-03T04:54:35.174Z,0.97
2018-07-03T04:57:03.089Z,0.93
2018-07-03T04:59:31.058Z,1.23
2018-07-03T05:01:58.981Z,1.00
2018-07-03T05:04:26.941Z,1.17
2018-07-03T05:06:54.832Z,1.07
2018-07-03T05:09:22.717Z,0.80
2018-07-03T05:11:50.620Z,1.30
2018-07-03T05:14:18.436Z,1.10
2018-07-03T05:16:50.916Z,0.93
2018-07-03T05:19:18.816Z,1.20
2018-07-03T05:21:46.724Z,1.30
2018-07-03T05:24:14.601Z,1.20
2018-07-03T05:26:42.461Z,1.50
2018-07-03T05:29:10.353Z,1.10
2018-07-03T05:31:38.350Z,1.50
2018-07-03T05:34:06.900Z,1.07
2018-07-03T05:36:34.976Z,0.93
2018-07-03T05:39:03.048Z,1.00
2018-07-03T05:41:30.969Z,1.17
2018-07-03T05:43:58.865Z,1.30
2018-07-03T05:46:26.817Z,1.00
2018-07-03T05:48:54.678Z,1.40
2018-07-03T05:51:22.628Z,1.70
2018-07-03T05:53:50.465Z,1.17
2018-07-03T05:56:18.393Z,1.07
2018-07-03T05:58:46.318Z,1.10
2018-07-03T06:01:14.149Z,1.30
2018-07-03T06:03:42.117Z,1.20
2018-07-03T06:06:09.944Z,1.27
2018-07-03T06:08:37.893Z,1.30
2018-07-03T06:11:05.813Z,1.40
2018-07-03T06:13:33.690Z,1.30
2018-07-03T06:16:01.547Z,1.00
2018-07-03T06:18:29.471Z,0.97
2018-07-03T06:20:57.396Z,1.20
2018-07-03T06:23:25.273Z,1.00
2018-07-03T06:25:53.243Z,1.03
2018-07-03T06:28:21.168Z,1.23
2018-07-03T06:30:49.168Z,1.10
2018-07-03T06:33:17.070Z,1.00
2018-07-03T06:35:44.874Z,1.10
2018-07-03T06:38:12.837Z,0.97
2018-07-03T06:40:40.677Z,0.80
2018-07-03T06:43:08.541Z,1.10
2018-07-03T06:45:36.499Z,1.10
2018-07-03T06:48:04.470Z,1.17
2018-07-03T06:50:32.393Z,1.03
2018-07-03T06:53:00.261Z,0.90
2018-07-03T06:55:28.174Z,1.23
2018-07-03T06:57:56.195Z,0.90
2018-07-03T07:00:24.014Z,1.00
2018-07-03T07:02:51.897Z,1.00
2018-07-03T07:05:19.800Z,1.00
2018-07-03T07:07:47.637Z,0.90
2018-07-03T07:10:15.498Z,0.87
2018-07-03T07:12:43.381Z,0.70
2018-07-03T07:15:11.289Z,1.00
2018-07-03T07:17:39.221Z,1.13
2018-07-03T07:20:07.208Z,1.03
2018-07-03T07:22:35.268Z,0.87
2018-07-03T07:25:03.156Z,0.90
2018-07-03T07:27:31.093Z,0.80
2018-07-03T07:29:58.905Z,1.10
2018-07-03T07:32:26.836Z,0.80
2018-07-03T07:34:54.841Z,1.00
2018-07-03T07:37:22.744Z,1.10
2018-07-03T07:39:50.648Z,1.10
2018-07-03T07:42:18.601Z,1.17
2018-07-03T07:44:46.426Z,1.13
2018-07-03T07:47:14.294Z,1.15
2018-07-03T07:49:42.656Z,1.00
2018-07-03T07:52:10.220Z,1.20
2018-07-03T07:54:38.139Z,1.03
2018-07-03T07:57:06.026Z,1.00
2018-07-03T07:59:33.878Z,1.17
2018-07-03T08:02:01.820Z,1.27
2018-07-03T08:04:29.664Z,1.03
2018-07-03T08:06:57.603Z,1.20
2018-07-03T08:09:25.471Z,1.00
2018-07-03T08:11:53.368Z,0.97
2018-07-03T08:14:21.281Z,1.30
2018-07-03T08:16:49.115Z,1.07
2018-07-03T08:19:17.027Z,1.10
2018-07-03T08:21:44.825Z,0.90
2018-07-03T08:24:12.676Z,1.00
2018-07-03T08:26:40.599Z,1.03
2018-07-03T08:29:08.492Z,1.00
2018-07-03T08:31:36.322Z,1.00
2018-07-03T08:34:04.248Z,1.10
2018-07-03T08:36:32.077Z,0.90
2018-07-03T08:38:59.913Z,1.30
2018-07-03T08:41:27.836Z,1.00
2018-07-03T08:43:55.736Z,1.20
2018-07-03T08:46:23.584Z,0.93
2018-07-03T08:48:51.409Z,0.87
2018-07-03T08:51:19.316Z,1.00
2018-07-03T08:53:47.101Z,1.10
2018-07-03T08:56:14.900Z,1.10
2018-07-03T08:58:42.765Z,1.13
2018-07-03T09:01:10.672Z,1.00
2018-07-03T09:03:38.547Z,1.20
2018-07-03T09:06:06.536Z,2.83
2018-07-03T09:08:34.373Z,1.23
2018-07-03T09:11:02.322Z,1.10
2018-07-03T09:13:30.158Z,0.93
2018-07-03T09:15:58.061Z,1.10
2018-07-03T09:18:25.961Z,1.10
2018-07-03T09:20:53.817Z,0.93
2018-07-03T09:23:21.725Z,1.43
2018-07-03T09:25:49.681Z,1.10
2018-07-03T09:28:17.541Z,1.10
2018-07-03T09:30:45.436Z,0.70
2018-07-03T09:33:13.258Z,0.97
2018-07-03T09:35:41.079Z,1.03
2018-07-03T09:38:08.959Z,1.07
2018-07-03T09:40:37.537Z,0.83
2018-07-03T09:43:05.605Z,0.90
2018-07-03T09:45:33.457Z,1.10
2018-07-03T09:48:01.326Z,0.90
2018-07-03T09:50:29.189Z,0.90
2018-07-03T09:52:57.157Z,0.90
2018-07-03T09:55:25.023Z,1.20
2018-07-03T09:57:53.242Z,1.10
2018-07-03T10:00:26.806Z,1.50
2018-07-03T10:02:55.249Z,1.23
2018-07-03T10:05:23.137Z,0.80
2018-07-03T10:07:50.981Z,0.70
2018-07-03T10:10:18.876Z,0.90
2018-07-03T10:12:46.812Z,0.97
2018-07-03T10:15:14.746Z,1.10
2018-07-03T10:17:42.597Z,1.13
2018-07-03T10:20:10.464Z,0.90
2018-07-03T10:22:38.377Z,1.10
2018-07-03T10:25:06.300Z,1.13
2018-07-03T10:27:34.254Z,1.03
2018-07-03T10:30:02.112Z,1.00
2018-07-03T10:32:30.074Z,1.20
2018-07-03T10:34:58.036Z,1.07
2018-07-03T10:37:25.935Z,1.00
2018-07-03T10:39:53.913Z,1.10
2018-07-03T10:42:21.901Z,1.07
2018-07-03T10:44:49.753Z,0.90
2018-07-03T10:47:17.666Z,1.30
2018-07-03T10:49:45.592Z,0.87
2018-07-03T10:52:13.461Z,1.15
2018-07-03T10:54:41.473Z,1.00
2018-07-03T10:57:09.608Z,0.88
2018-07-03T10:59:37.570Z,1.20
2018-07-03T11:02:05.880Z,0.80
2018-07-03T11:04:33.705Z,1.00
2018-07-03T11:07:01.609Z,1.10
2018-07-03T11:09:29.457Z,1.02
2018-07-03T11:11:57.292Z,0.95
2018-07-03T11:14:25.168Z,1.27
2018-07-03T11:16:53.046Z,1.10
2018-07-03T11:19:20.897Z,0.95
2018-07-03T11:21:48.788Z,1.10
2018-07-03T11:24:17.055Z,1.15
2018-07-03T11:26:44.939Z,1.20
2018-07-03T11:29:12.780Z,1.00
2018-07-03T11:31:40.632Z,1.10
2018-07-03T11:34:08.501Z,1.05
2018-07-03T11:36:36.376Z,0.98
2018-07-03T11:39:07.043Z,0.93
2018-07-03T11:41:35.114Z,1.10
2018-07-03T11:44:03.044Z,1.00
2018-07-03T11:46:30.965Z,0.85
2018-07-03T11:48:58.869Z,0.90
2018-07-03T11:51:26.725Z,0.90
2018-07-03T11:53:54.547Z,1.10
2018-07-03T11:56:22.528Z,1.07
2018-07-03T11:58:50.477Z,1.22
2018-07-03T12:01:18.507Z,1.00
2018-07-03T12:03:46.276Z,1.07
2018-07-03T12:06:14.341Z,0.90
2018-07-03T12:08:42.314Z,0.90
2018-07-03T12:11:10.435Z,1.00
2018-07-03T12:13:38.360Z,1.00
2018-07-03T12:16:06.245Z,1.15
2018-07-03T12:18:39.768Z,1.00
2018-07-03T12:21:07.636Z,0.70
2018-07-03T12:23:35.657Z,1.07
2018-07-03T12:26:03.554Z,1.22
2018-07-03T12:28:31.587Z,1.30
2018-07-03T12:30:59.420Z,1.10
2018-07-03T12:33:27.278Z,1.17
2018-07-03T12:35:55.125Z,1.10
2018-07-03T12:38:23.064Z,0.93
2018-07-03T12:40:50.996Z,1.20
2018-07-03T12:43:18.909Z,1.17
2018-07-03T12:45:46.893Z,1.10
2018-07-03T12:48:14.732Z,1.00
2018-07-03T12:50:42.644Z,1.12
2018-07-03T12:53:10.600Z,1.00
2018-07-03T12:55:38.494Z,1.10
2018-07-03T12:58:06.356Z,1.40
2018-07-03T13:00:34.386Z,1.45
2018-07-03T13:03:02.281Z,1.35
2018-07-03T13:05:30.178Z,1.52
2018-07-03T13:07:58.031Z,1.12
2018-07-03T13:10:25.917Z,1.17
2018-07-03T13:12:53.833Z,1.30
2018-07-03T13:15:21.704Z,1.20
2018-07-03T13:17:49.620Z,1.10
2018-07-03T13:20:17.477Z,1.02
2018-07-03T13:22:45.353Z,1.00
2018-07-03T13:25:13.373Z,1.12
2018-07-03T13:27:42.525Z,1.10
2018-07-03T13:30:10.700Z,1.02
2018-07-03T13:32:38.572Z,1.25
2018-07-03T13:35:07.943Z,0.85
2018-07-03T13:37:36.108Z,1.32
2018-07-03T13:40:05.493Z,1.17
2018-07-03T13:42:33.365Z,1.32
2018-07-03T13:45:01.249Z,1.00
2018-07-03T13:47:29.097Z,1.00
2018-07-03T13:49:57.050Z,1.32
2018-07-03T13:52:25.333Z,1.20
2018-07-03T13:54:53.290Z,1.17
2018-07-03T13:57:21.237Z,1.37
2018-07-03T13:59:49.113Z,1.10
2018-07-03T14:02:17.067Z,1.10
2018-07-03T14:04:44.918Z,1.23
2018-07-03T14:07:13.069Z,1.20
2018-07-03T14:09:40.994Z,1.07
2018-07-03T14:12:08.877Z,1.17
2018-07-03T14:14:36.952Z,1.20
2018-07-03T14:17:04.748Z,0.97
2018-07-03T14:19:36.832Z,1.10
2018-07-03T14:22:04.941Z,0.90
2018-07-03T14:24:32.817Z,1.00
2018-07-03T14:27:00.714Z,1.33
2018-07-03T14:29:30.600Z,1.40
2018-07-03T14:31:58.435Z,1.00
2018-07-03T14:34:26.380Z,1.10
2018-07-03T14:36:56.193Z,1.23
2018-07-03T14:39:25.905Z,1.20
2018-07-03T14:41:53.896Z,1.10
2018-07-03T14:44:21.855Z,1.30
2018-07-03T14:46:49.980Z,0.93
2018-07-03T14:49:17.936Z,1.10
2018-07-03T14:51:45.949Z,1.30
2018-07-03T14:54:13.800Z,1.00
2018-07-03T14:56:41.716Z,1.00
2018-07-03T14:59:09.721Z,1.00
2018-07-03T15:01:38.177Z,1.20
2018-07-03T15:04:06.037Z,1.00
2018-07-03T15:06:34.973Z,1.07
2018-07-03T15:09:05.604Z,1.07
2018-07-03T15:11:34.245Z,1.20
2018-07-03T15:14:03.225Z,1.00
2018-07-03T15:16:31.514Z,1.30
2018-07-03T15:19:04.928Z,0.97
2018-07-03T15:21:32.753Z,1.00
2018-07-03T15:24:00.613Z,1.13
2018-07-03T15:26:28.515Z,0.90
2018-07-03T15:28:56.289Z,1.00
2018-07-03T15:31:24.132Z,1.00
2018-07-03T15:33:52.488Z,1.00
2018-07-03T15:36:20.728Z,0.97
2018-07-03T15:38:48.607Z,0.90
2018-07-03T15:41:16.676Z,1.20
2018-07-03T15:44:01.980Z,1.10
2018-07-03T15:46:29.863Z,1.17
2018-07-03T15:48:57.742Z,1.13
2018-07-03T15:51:25.652Z,1.23
2018-07-03T15:53:54.576Z,1.30
2018-07-03T15:56:22.557Z,1.00
2018-07-03T15:58:50.444Z,0.90
2018-07-03T16:01:19.219Z,1.20
2018-07-03T16:05:03.509Z,1.20
2018-07-03T16:08:50.652Z,1.13
2018-07-03T16:11:18.595Z,1.30
2018-07-03T16:13:46.426Z,1.10
2018-07-03T16:16:15.093Z,1.30
2018-07-03T16:18:42.989Z,1.17
2018-07-03T16:21:10.857Z,1.00
2018-07-03T16:23:38.734Z,1.00
2018-07-03T16:26:06.697Z,1.57
2018-07-03T16:28:34.646Z,1.40
2018-07-03T16:31:02.556Z,1.30
2018-07-03T16:33:30.573Z,1.20
2018-07-03T16:35:58.434Z,1.20
2018-07-03T16:38:26.349Z,0.80
2018-07-03T16:40:54.289Z,1.40
2018-07-03T16:43:22.158Z,1.07
2018-07-03T16:45:50.016Z,1.20
2018-07-03T16:48:18.034Z,1.40
2018-07-03T16:50:47.897Z,1.20
2018-07-03T16:53:24.221Z,1.43
2018-07-03T16:55:52.065Z,1.30
2018-07-03T16:58:19.944Z,1.30
2018-07-03T17:00:47.815Z,1.10
2018-07-03T17:03:15.781Z,1.00
2018-07-03T17:05:43.715Z,1.17
2018-07-03T17:08:11.673Z,1.40
2018-07-03T17:10:39.625Z,1.13
2018-07-03T17:13:07.572Z,1.40
2018-07-03T17:15:35.477Z,1.47
2018-07-03T17:18:03.365Z,1.53
2018-07-03T17:20:31.179Z,1.67
2018-07-03T17:22:59.049Z,1.10
2018-07-03T17:25:26.936Z,1.50
2018-07-03T17:27:54.786Z,1.30
2018-07-03T17:30:22.841Z,1.60
2018-07-03T17:32:50.747Z,1.50
2018-07-03T17:35:18.690Z,1.43
2018-07-03T17:37:46.630Z,1.30
2018-07-03T17:40:31.877Z,1.50
2018-07-03T17:44:26.457Z,1.30
2018-07-03T17:46:54.385Z,1.13
2018-07-03T17:49:22.272Z,1.53
2018-07-03T17:51:50.153Z,1.60
2018-07-03T17:54:18.178Z,1.30
2018-07-03T17:56:46.070Z,1.60
2018-07-03T17:59:13.976Z,1.50
2018-07-03T18:01:41.911Z,1.60
2018-07-03T18:04:13.290Z,1.37
2018-07-03T18:06:41.187Z,1.47
2018-07-03T18:09:11.141Z,1.40
2018-07-03T18:11:39.080Z,1.40
2018-07-03T18:14:07.152Z,1.57
2018-07-03T18:16:34.997Z,1.47
2018-07-03T18:19:08.772Z,1.63
2018-07-03T18:21:36.684Z,1.53
2018-07-03T18:24:05.103Z,1.40
2018-07-03T18:26:33.376Z,1.70
2018-07-03T18:29:01.378Z,1.43
2018-07-03T18:31:29.297Z,1.73
2018-07-03T18:33:57.250Z,1.50
2018-07-03T18:36:25.093Z,1.70
2018-07-03T18:38:52.957Z,1.57
2018-07-03T18:41:20.876Z,1.80
2018-07-03T18:43:48.749Z,1.80
2018-07-03T18:46:16.664Z,1.50
2018-07-03T18:48:44.605Z,1.43
2018-07-03T18:51:12.526Z,1.50
2018-07-03T18:53:40.404Z,1.47
2018-07-03T18:56:08.271Z,1.70
2018-07-03T18:58:36.217Z,1.37
2018-07-03T19:01:04.240Z,1.60
2018-07-03T19:03:32.200Z,1.30
2018-07-03T19:06:00.095Z,2.27
2018-07-03T19:08:27.908Z,1.53
2018-07-03T19:10:55.789Z,1.10
2018-07-03T19:13:23.717Z,1.70
2018-07-03T19:15:51.568Z,1.33
2018-07-03T19:18:19.475Z,1.70
2018-07-03T19:20:47.566Z,1.80
2018-07-03T19:23:15.521Z,1.93
2018-07-03T19:25:43.465Z,1.40
2018-07-03T19:28:11.342Z,1.70
2018-07-03T19:30:39.239Z,2.30
2018-07-03T19:33:07.150Z,2.17
2018-07-03T19:35:34.942Z,1.63
2018-07-03T19:38:03.125Z,2.50
2018-07-03T19:40:30.916Z,2.30
2018-07-03T19:43:32.538Z,2.37
2018-07-03T19:46:01.121Z,2.10
2018-07-03T19:48:28.957Z,2.20
2018-07-03T19:50:56.940Z,2.23
2018-07-03T19:53:24.768Z,1.80
2018-07-03T19:55:53.903Z,1.73
2018-07-03T19:58:22.060Z,1.80
2018-07-03T20:00:51.013Z,2.00
2018-07-03T20:03:18.961Z,1.80
2018-07-03T20:05:46.829Z,2.20
2018-07-03T20:08:14.757Z,2.00
2018-07-03T20:10:42.730Z,2.00
2018-07-03T20:13:12.822Z,2.40
2018-07-03T20:15:40.694Z,2.70
2018-07-03T20:18:10.170Z,2.77
2018-07-03T20:20:38.341Z,2.80
2018-07-03T20:23:06.314Z,3.23
2018-07-03T20:25:35.049Z,2.90
2018-07-03T20:28:02.969Z,3.47
2018-07-03T20:30:30.904Z,3.00
2018-07-03T20:32:58.985Z,3.17
2018-07-03T20:35:27.021Z,2.90
2018-07-03T20:38:03.120Z,3.27
2018-07-03T20:41:03.161Z,3.33
2018-07-03T20:43:32.511Z,3.20
2018-07-03T20:46:00.445Z,2.83
2018-07-03T20:48:28.465Z,3.17
2018-07-03T20:50:57.141Z,2.03
2018-07-03T20:53:25.097Z,2.43
2018-07-03T20:55:53.007Z,2.17
2018-07-03T20:58:21.216Z,2.57
2018-07-03T21:00:49.061Z,2.10
2018-07-03T21:03:16.985Z,2.63
2018-07-03T21:05:44.819Z,2.00
2018-07-03T21:08:12.718Z,2.03
2018-07-03T21:10:40.677Z,2.23
2018-07-03T21:13:08.599Z,2.30
2018-07-03T21:15:36.429Z,1.70
2018-07-03T21:18:04.327Z,1.97
2018-07-03T21:20:32.251Z,2.30
2018-07-03T21:23:00.264Z,2.43
2018-07-03T21:25:28.169Z,2.17
2018-07-03T21:27:56.044Z,2.27
2018-07-03T21:30:23.970Z,2.63
2018-07-03T21:32:51.837Z,2.10
2018-07-03T21:35:20.473Z,2.27
2018-07-03T21:37:48.567Z,2.90
2018-07-03T21:40:16.454Z,2.80
2018-07-03T21:42:44.308Z,2.50
2018-07-03T21:45:12.089Z,2.40
2018-07-03T21:47:39.881Z,2.27
2018-07-03T21:50:07.789Z,2.20
2018-07-03T21:52:35.645Z,2.37
2018-07-03T21:55:03.589Z,2.40
2018-07-03T21:57:31.501Z,2.07
2018-07-03T21:59:59.424Z,2.60
2018-07-03T22:02:27.290Z,2.67
2018-07-03T22:04:55.125Z,2.50
2018-07-03T22:07:23.064Z,2.10
2018-07-03T22:09:51.009Z,2.00
2018-07-03T22:12:18.876Z,2.57
2018-07-03T22:14:46.754Z,2.13
2018-07-03T22:17:14.601Z,3.10
2018-07-03T22:19:42.530Z,2.17
2018-07-03T22:22:10.465Z,3.03
2018-07-03T22:24:38.256Z,3.07
2018-07-03T22:27:06.100Z,2.50
2018-07-03T22:29:33.907Z,2.83
2018-07-03T22:32:11.179Z,2.77
2018-07-03T22:34:40.097Z,2.63
2018-07-03T22:37:07.991Z,2.43
2018-07-03T22:39:39.818Z,2.67
2018-07-03T22:42:12.418Z,2.53
2018-07-03T22:44:40.782Z,2.50
2018-07-03T22:47:08.789Z,2.50
2018-07-03T22:49:36.595Z,2.83
2018-07-03T22:52:04.757Z,2.27
2018-07-03T22:54:32.641Z,2.60
2018-07-03T22:57:00.589Z,2.57
2018-07-03T22:59:28.448Z,2.73
2018-07-03T23:01:56.286Z,2.63
2018-07-03T23:04:24.221Z,2.33
2018-07-03T23:06:52.243Z,2.50
2018-07-03T23:09:20.174Z,2.37
2018-07-03T23:11:48.034Z,2.70
2018-07-03T23:14:15.932Z,2.53
2018-07-03T23:16:43.836Z,2.10
2018-07-03T23:19:11.756Z,2.80
2018-07-03T23:21:39.679Z,2.70
2018-07-03T23:24:07.577Z,2.30
2018-07-03T23:26:35.439Z,2.57
2018-07-03T23:29:03.281Z,2.20
2018-07-03T23:31:31.146Z,2.40
2018-07-03T23:33:59.043Z,2.30
2018-07-03T23:36:26.941Z,2.37
2018-07-03T23:38:54.897Z,2.20
2018-07-03T23:41:22.809Z,2.43
2018-07-03T23:43:51.223Z,2.20
2018-07-03T23:46:36.417Z,2.23
2018-07-03T23:49:21.508Z,2.20
2018-07-03T23:52:06.604Z,2.10
2018-07-03T23:54:51.632Z,2.10
2018-07-03T23:57:36.817Z,1.83
